createdAt,value
2023-04-24T00:01:16.278Z,99298.09
2023-04-24T00:03:46.369Z,99302.25
2023-04-24T00:06:13.628Z,99288.75
2023-04-24T00:08:44.783Z,99287.72
2023-04-24T00:11:11.778Z,99278.75
2023-04-24T00:13:40.754Z,99282.09
2023-04-24T00:16:07.472Z,99278.56
2023-04-24T00:18:34.175Z,99270.63
2023-04-24T00:21:02.935Z,99273.94
2023-04-24T00:23:29.652Z,99273.31
2023-04-24T00:25:56.423Z,99260.59
2023-04-24T00:28:23.181Z,99272.44
2023-04-24T00:30:50.405Z,99274.13
2023-04-24T00:33:17.147Z,99279.66
2023-04-24T00:35:43.780Z,99294.81
2023-04-24T00:38:10.396Z,99301.22
2023-04-24T00:40:37.211Z,99291.66
2023-04-24T00:43:10.951Z,99293.84
2023-04-24T00:45:37.790Z,99286.28
2023-04-24T00:48:08.738Z,99287.47
2023-04-24T00:50:42.629Z,99284.53
2023-04-24T00:53:09.528Z,99283.03
2023-04-24T00:55:38.361Z,99277.78
2023-04-24T00:58:12.129Z,99276.69
2023-04-24T01:00:41.842Z,99268.97
2023-04-24T01:03:12.482Z,99278.69
2023-04-24T01:05:41.960Z,99260.38
2023-04-24T01:08:09.058Z,99265.06
2023-04-24T01:10:43.585Z,99258.31
2023-04-24T01:13:10.732Z,99250.72
2023-04-24T01:15:43.668Z,99247.53
2023-04-24T01:18:10.385Z,99247.25
2023-04-24T01:20:48.380Z,99237.03
2023-04-24T01:23:18.628Z,99234.47
2023-04-24T01:25:46.100Z,99237.53
2023-04-24T01:28:17.665Z,99233.75
2023-04-24T01:30:45.644Z,99230.78
2023-04-24T01:33:13.002Z,99230.31
2023-04-24T01:35:43.502Z,99238.94
2023-04-24T01:38:10.399Z,99231.25
2023-04-24T01:40:37.113Z,99234.13
2023-04-24T01:43:04.433Z,99220.81
2023-04-24T01:45:31.291Z,99211.91
2023-04-24T01:47:58.741Z,99214.59
2023-04-24T01:50:25.855Z,99209.19
2023-04-24T01:52:55.086Z,99217.69
2023-04-24T01:55:22.002Z,99213.47
2023-04-24T01:57:48.821Z,99209.78
2023-04-24T02:00:16.080Z,99210.59
2023-04-24T02:02:46.447Z,99202.97
2023-04-24T02:05:14.399Z,99209.03
2023-04-24T02:07:43.280Z,99200.47
2023-04-24T02:10:11.630Z,99187.38
2023-04-24T02:12:38.564Z,99185.25
2023-04-24T02:15:08.614Z,99177.34
2023-04-24T02:17:35.429Z,99168.13
2023-04-24T02:20:28.452Z,99169.16
2023-04-24T02:22:56.118Z,99172.69
2023-04-24T02:25:23.339Z,99164.16
2023-04-24T02:27:50.184Z,99141.66
2023-04-24T02:30:17.062Z,99132.88
2023-04-24T02:32:43.877Z,99155.28
2023-04-24T02:35:15.260Z,99163.53
2023-04-24T02:37:41.946Z,99166.16
2023-04-24T02:40:11.886Z,99170.31
2023-04-24T02:42:38.679Z,99162.44
2023-04-24T02:45:06.608Z,99163.75
2023-04-24T02:47:33.450Z,99161.53
2023-04-24T02:50:00.056Z,99169.06
2023-04-24T02:52:26.743Z,99166.72
2023-04-24T02:54:55.989Z,99166.97
2023-04-24T02:57:22.718Z,99169.09
2023-04-24T02:59:49.453Z,99174.13
2023-04-24T03:02:16.245Z,99170.78
2023-04-24T03:04:46.718Z,99165.56
2023-04-24T03:07:13.665Z,99165.00
2023-04-24T03:09:45.448Z,99164.00
2023-04-24T03:12:12.182Z,99166.41
2023-04-24T03:14:38.934Z,99165.78
2023-04-24T03:17:11.378Z,99151.47
2023-04-24T03:19:37.967Z,99145.44
2023-04-24T03:22:10.020Z,99150.94
2023-04-24T03:24:36.790Z,99154.47
2023-04-24T03:27:07.970Z,99157.25
2023-04-24T03:29:34.722Z,99156.59
2023-04-24T03:32:01.623Z,99156.41
2023-04-24T03:34:36.516Z,99159.75
2023-04-24T03:37:06.235Z,99154.56
2023-04-24T03:39:32.935Z,99150.66
2023-04-24T03:41:59.542Z,99151.03
2023-04-24T03:44:26.328Z,99156.69
2023-04-24T03:46:55.453Z,99155.47
2023-04-24T03:49:22.980Z,99162.44
2023-04-24T03:51:49.758Z,99166.69
2023-04-24T03:54:16.486Z,99162.31
2023-04-24T03:56:43.133Z,99160.34
2023-04-24T03:59:10.006Z,99163.97
2023-04-24T04:01:38.187Z,99169.03
2023-04-24T04:04:09.097Z,99162.88
2023-04-24T04:06:37.276Z,99160.19
2023-04-24T04:09:04.219Z,99165.28
2023-04-24T04:11:31.542Z,99163.81
2023-04-24T04:13:58.380Z,99157.13
2023-04-24T04:16:31.000Z,99159.53
2023-04-24T04:18:57.949Z,99151.06
2023-04-24T04:21:24.993Z,99157.38
2023-04-24T04:23:51.655Z,99160.75
2023-04-24T04:26:20.175Z,99162.16
2023-04-24T04:28:48.689Z,99157.59
2023-04-24T04:31:18.219Z,99160.56
2023-04-24T04:33:45.104Z,99163.47
2023-04-24T04:36:18.262Z,99169.63
2023-04-24T04:38:48.450Z,99163.97
2023-04-24T04:41:17.893Z,99167.06
2023-04-24T04:43:46.952Z,99160.50
2023-04-24T04:46:13.593Z,99160.78
2023-04-24T04:48:41.308Z,99164.88
2023-04-24T04:51:11.379Z,99160.03
2023-04-24T04:53:43.594Z,99165.88
2023-04-24T04:56:10.609Z,99161.97
2023-04-24T04:58:37.167Z,99164.84
2023-04-24T05:01:04.151Z,99157.75
2023-04-24T05:03:30.898Z,99157.16
2023-04-24T05:05:59.357Z,99154.81
2023-04-24T05:08:27.521Z,99161.69
2023-04-24T05:29:55.021Z,99172.38
2023-04-24T05:32:24.304Z,99170.81
2023-04-24T05:45:46.824Z,99179.91
2023-04-24T06:39:45.711Z,99174.97
2023-04-24T06:42:12.835Z,99167.06
2023-04-24T06:44:42.420Z,99178.56
2023-04-24T06:47:18.801Z,99169.63
2023-04-24T06:52:28.747Z,99165.59
2023-04-24T06:55:04.793Z,99171.25
2023-04-24T06:57:34.815Z,99165.66
2023-04-24T07:00:01.892Z,99170.06
2023-04-24T07:02:28.695Z,99168.44
2023-04-24T07:04:55.548Z,99166.38
2023-04-24T07:07:24.253Z,99170.31
2023-04-24T07:09:52.099Z,99157.41
2023-04-24T07:12:22.744Z,99166.34
2023-04-24T07:14:49.411Z,99160.31
2023-04-24T07:17:16.111Z,99163.84
2023-04-24T07:19:43.463Z,99156.13
2023-04-24T07:22:15.527Z,99159.06
2023-04-24T07:24:42.182Z,99157.75
2023-04-24T07:27:08.825Z,99155.28
2023-04-24T07:29:36.535Z,99161.31
2023-04-24T07:32:04.515Z,99162.19
2023-04-24T07:34:31.151Z,99148.47
2023-04-24T07:37:00.676Z,99150.09
2023-04-24T07:39:27.599Z,99156.16
2023-04-24T07:41:56.710Z,99157.41
2023-04-24T07:44:23.374Z,99170.94
2023-04-24T07:46:50.502Z,99173.44
2023-04-24T07:49:19.296Z,99174.25
2023-04-24T07:51:49.273Z,99173.03
2023-04-24T07:54:16.177Z,99176.38
2023-04-24T07:56:44.911Z,99179.06
2023-04-24T07:59:14.604Z,99177.81
2023-04-24T08:01:44.254Z,99182.84
2023-04-24T08:04:11.148Z,99180.75
2023-04-24T08:06:38.096Z,99192.19
2023-04-24T08:09:04.864Z,99193.06
2023-04-24T08:11:31.602Z,99186.19
2023-04-24T08:13:58.655Z,99191.59
2023-04-24T08:16:25.499Z,99197.41
2023-04-24T08:18:54.142Z,99192.00
2023-04-24T08:21:21.694Z,99192.81
2023-04-24T08:23:48.500Z,99197.63
2023-04-24T08:26:18.224Z,99194.50
2023-04-24T08:28:48.030Z,99200.31
2023-04-24T08:31:19.611Z,99206.38
2023-04-24T08:33:52.027Z,99201.38
2023-04-24T08:36:19.000Z,99200.13
2023-04-24T08:38:47.396Z,99197.84
2023-04-24T08:41:19.967Z,99204.69
2023-04-24T08:43:51.571Z,99206.75
2023-04-24T08:46:24.484Z,99206.91
2023-04-24T08:48:56.386Z,99201.50
2023-04-24T08:51:28.510Z,99208.47
2023-04-24T08:53:55.954Z,99214.25
2023-04-24T08:56:28.129Z,99208.59
2023-04-24T08:58:55.832Z,99212.00
2023-04-24T09:01:26.124Z,99208.47
2023-04-24T09:03:57.285Z,99206.31
2023-04-24T09:06:29.753Z,99204.31
2023-04-24T09:08:57.409Z,99208.63
2023-04-24T09:11:26.599Z,99214.28
2023-04-24T09:13:58.709Z,99208.75
2023-04-24T09:16:29.098Z,99218.16
2023-04-24T09:18:57.142Z,99215.63
2023-04-24T09:21:26.344Z,99217.50
2023-04-24T09:24:03.901Z,99229.03
2023-04-24T09:26:33.624Z,99211.94
2023-04-24T09:29:01.792Z,99227.84
2023-04-24T09:31:30.805Z,99230.75
2023-04-24T09:34:08.709Z,99227.63
2023-04-24T09:36:43.617Z,99236.97
2023-04-24T09:39:18.572Z,99239.09
2023-04-24T09:42:00.867Z,99232.41
2023-04-24T09:44:30.740Z,99232.88
2023-04-24T09:47:01.563Z,99233.91
2023-04-24T09:49:34.171Z,99231.59
2023-04-24T09:52:11.421Z,99220.88
2023-04-24T09:54:40.920Z,99237.97
2023-04-24T09:57:11.148Z,99224.38
2023-04-24T09:59:45.623Z,99226.88
2023-04-24T10:02:22.187Z,99240.69
2023-04-24T10:04:58.137Z,99238.44
2023-04-24T10:07:30.258Z,99241.34
2023-04-24T10:09:57.622Z,99246.78
2023-04-24T10:12:26.150Z,99237.81
2023-04-24T10:14:58.391Z,99234.03
2023-04-24T10:17:27.052Z,99233.59
2023-04-24T10:20:02.336Z,99241.03
2023-04-24T10:22:34.847Z,99238.72
2023-04-24T10:25:06.468Z,99245.91
2023-04-24T10:41:28.608Z,99248.69
2023-04-24T10:44:16.560Z,99250.72
2023-04-24T10:46:56.753Z,99257.41
2023-04-24T10:49:33.942Z,99262.22
2023-04-24T10:52:08.701Z,99257.03
2023-04-24T10:54:48.082Z,99262.34
2023-04-24T10:57:31.075Z,99253.84
2023-04-24T11:17:33.251Z,99259.28
2023-04-24T11:22:58.672Z,99251.63
2023-04-24T11:25:26.142Z,99254.47
2023-04-24T11:28:06.468Z,99264.50
2023-04-24T11:30:43.978Z,99263.56
2023-04-24T11:33:10.819Z,99255.41
2023-04-24T11:35:42.079Z,99262.13
2023-04-24T11:38:24.117Z,99248.03
2023-04-24T11:40:56.974Z,99257.16
2023-04-24T11:43:28.943Z,99255.75
2023-04-24T11:46:01.239Z,99258.72
2023-04-24T11:48:30.686Z,99254.63
2023-04-24T11:50:57.627Z,99260.31
2023-04-24T11:53:24.930Z,99267.19
2023-04-24T11:56:04.967Z,99263.25
2023-04-24T11:58:46.142Z,99267.41
2023-04-24T12:01:13.149Z,99260.13
2023-04-24T12:03:44.451Z,99257.22
2023-04-24T12:06:17.700Z,99268.38
2023-04-24T12:08:51.446Z,99254.63
2023-04-24T12:11:18.978Z,99263.50
2023-04-24T12:13:48.768Z,99269.59
2023-04-24T12:16:15.719Z,99268.78
2023-04-24T12:18:53.487Z,99285.81
2023-04-24T12:21:32.554Z,99276.84
2023-04-24T12:23:59.523Z,99266.16
2023-04-24T12:26:29.067Z,99275.28
2023-04-24T12:28:56.028Z,99272.03
2023-04-24T12:31:25.728Z,99273.09
2023-04-24T12:33:54.940Z,99269.09
2023-04-24T12:36:25.118Z,99264.47
2023-04-24T12:39:15.381Z,99250.56
2023-04-24T12:42:00.368Z,99257.81
2023-04-24T12:44:35.621Z,99266.78
2023-04-24T12:47:02.994Z,99255.28
2023-04-24T12:49:32.147Z,99261.59
2023-04-24T12:51:58.895Z,99248.47
2023-04-24T12:54:34.773Z,99258.00
2023-04-24T12:57:15.038Z,99253.44
2023-04-24T12:59:49.264Z,99262.59
2023-04-24T13:02:18.725Z,99267.28
2023-04-24T13:05:03.003Z,99256.34
2023-04-24T13:07:34.249Z,99263.00
2023-04-24T13:10:01.368Z,99250.91
2023-04-24T13:12:28.180Z,99259.41
2023-04-24T13:14:59.653Z,99256.75
2023-04-24T13:17:26.585Z,99255.84
2023-04-24T13:19:56.437Z,99259.13
2023-04-24T13:22:26.225Z,99260.81
2023-04-24T13:24:53.007Z,99263.50
2023-04-24T13:27:19.968Z,99258.91
2023-04-24T13:29:55.904Z,99257.75
2023-04-24T13:32:24.847Z,99268.09
2023-04-24T13:35:16.195Z,99264.91
2023-04-24T13:37:50.547Z,99248.88
2023-04-24T13:40:20.752Z,99254.91
2023-04-24T13:42:47.692Z,99246.88
2023-04-24T13:45:24.730Z,99251.16
2023-04-24T13:47:56.590Z,99261.13
2023-04-24T13:50:27.161Z,99263.25
2023-04-24T13:53:02.646Z,99263.81
2023-04-24T13:55:30.499Z,99255.75
2023-04-24T13:57:58.788Z,99252.09
2023-04-24T14:00:31.782Z,99263.75
2023-04-24T14:02:58.663Z,99254.59
2023-04-24T14:05:28.486Z,99255.34
2023-04-24T14:07:57.898Z,99258.69
2023-04-24T14:10:28.231Z,99254.09
2023-04-24T14:12:55.876Z,99251.84
2023-04-24T14:15:29.988Z,99255.84
2023-04-24T14:17:58.553Z,99260.19
2023-04-24T14:20:30.865Z,99263.44
2023-04-24T14:23:00.035Z,99258.91
2023-04-24T14:25:35.425Z,99253.03
2023-04-24T14:28:02.502Z,99258.69
2023-04-24T14:30:29.406Z,99253.38
2023-04-24T14:33:06.243Z,99262.34
2023-04-24T14:35:35.057Z,99253.19
2023-04-24T14:38:01.998Z,99251.53
2023-04-24T14:43:05.090Z,99245.66
2023-04-24T14:45:32.069Z,99241.88
2023-04-24T14:47:58.908Z,99246.88
2023-04-24T15:04:01.506Z,99255.75
2023-04-24T15:06:32.478Z,99250.34
2023-04-24T15:28:10.160Z,99255.72
2023-04-24T15:30:37.183Z,99254.69
2023-04-24T15:33:04.086Z,99242.63
2023-04-24T15:35:31.268Z,99242.41
2023-04-24T15:37:58.232Z,99247.72
2023-04-24T15:40:25.204Z,99248.03
2023-04-24T15:42:54.515Z,99254.00
2023-04-24T15:45:21.225Z,99259.22
2023-04-24T15:47:48.142Z,99248.75
2023-04-24T15:56:04.772Z,99261.69
2023-04-24T16:20:25.179Z,99268.91
2023-04-24T16:36:23.990Z,99290.59
2023-04-24T16:55:10.890Z,99318.56
2023-04-24T16:57:37.989Z,99328.13
2023-04-24T17:51:26.245Z,99398.91
2023-04-24T17:53:56.219Z,99404.75
2023-04-24T18:04:32.044Z,99403.28
2023-04-24T18:23:23.045Z,99415.03
2023-04-24T19:35:58.140Z,99436.19
2023-04-24T20:27:31.100Z,99419.69
2023-04-24T20:30:01.010Z,99432.06
2023-04-24T20:32:28.241Z,99428.09
2023-04-24T20:34:57.348Z,99430.09
2023-04-24T20:37:24.979Z,99428.91
2023-04-24T20:39:55.010Z,99435.28
2023-04-24T20:42:25.769Z,99433.28
2023-04-24T20:44:55.946Z,99438.66
2023-04-24T20:47:25.961Z,99434.59
2023-04-24T20:49:56.443Z,99442.47
2023-04-24T20:52:23.191Z,99432.59
2023-04-24T20:54:49.973Z,99441.16
2023-04-24T20:57:20.978Z,99450.22
2023-04-24T20:59:47.899Z,99439.69
2023-04-24T21:02:14.918Z,99448.22
2023-04-24T21:04:44.410Z,99452.63
2023-04-24T21:07:12.896Z,99459.50
2023-04-24T21:09:42.922Z,99457.84
2023-04-24T21:12:15.944Z,99457.00
2023-04-24T21:14:49.791Z,99461.22
2023-04-24T21:17:18.024Z,99459.06
2023-04-24T21:19:50.291Z,99457.22
2023-04-24T21:22:17.065Z,99465.09
2023-04-24T21:24:48.228Z,99470.13
2023-04-24T21:27:15.103Z,99472.47
2023-04-24T21:29:42.952Z,99474.66
2023-04-24T21:32:12.325Z,99479.16
2023-04-24T21:34:41.529Z,99483.22
2023-04-24T21:37:11.408Z,99472.47
2023-04-24T21:39:38.183Z,99479.56
2023-04-24T21:42:05.126Z,99477.69
2023-04-24T21:44:32.090Z,99480.06
2023-04-24T21:46:59.506Z,99482.72
2023-04-24T21:49:29.035Z,99487.59
2023-04-24T21:51:56.177Z,99487.78
2023-04-24T21:54:23.041Z,99490.28
2023-04-24T21:56:50.128Z,99495.66
2023-04-24T21:59:17.649Z,99497.84
2023-04-24T22:01:48.481Z,99491.66
2023-04-24T22:04:18.326Z,99496.03
2023-04-24T22:06:45.082Z,99498.03
2023-04-24T22:09:12.334Z,99504.38
2023-04-24T22:11:39.130Z,99508.38
2023-04-24T22:14:07.098Z,99504.38
2023-04-24T22:16:34.502Z,99503.00
2023-04-24T22:19:01.389Z,99511.56
2023-04-24T22:21:28.621Z,99500.47
2023-04-24T22:23:55.500Z,99510.38
2023-04-24T22:26:22.719Z,99519.56
2023-04-24T22:28:50.718Z,99515.88
2023-04-24T22:31:18.010Z,99518.75
2023-04-24T22:33:49.574Z,99522.06
2023-04-24T22:36:16.439Z,99521.72
2023-04-24T22:38:45.828Z,99525.41
2023-04-24T22:41:13.049Z,99523.03
2023-04-24T22:43:40.077Z,99522.84
2023-04-24T22:46:07.004Z,99526.16
2023-04-24T22:48:34.584Z,99528.38
2023-04-24T22:51:01.615Z,99523.16
2023-04-24T22:53:28.948Z,99523.50
2023-04-24T22:56:02.799Z,99534.03
2023-04-24T22:58:32.874Z,99537.88
2023-04-24T23:01:00.019Z,99541.09
2023-04-24T23:03:26.944Z,99532.03
2023-04-24T23:05:56.907Z,99544.47
2023-04-24T23:08:26.288Z,99541.25
2023-04-24T23:10:56.517Z,99541.94
2023-04-24T23:13:25.870Z,99537.56
2023-04-24T23:15:55.137Z,99539.09
2023-04-24T23:18:21.996Z,99544.13
2023-04-24T23:20:49.035Z,99534.56
2023-04-24T23:23:22.127Z,99540.03
2023-04-24T23:25:49.182Z,99536.63
2023-04-24T23:28:23.416Z,99541.47
2023-04-24T23:30:51.987Z,99554.09
2023-04-24T23:33:21.078Z,99551.66
2023-04-24T23:36:00.174Z,99548.53
2023-04-24T23:38:30.117Z,99556.31
2023-04-24T23:41:01.800Z,99562.50
2023-04-24T23:43:28.522Z,99571.41
2023-04-24T23:45:55.403Z,99565.50
2023-04-24T23:48:22.515Z,99554.25
2023-04-24T23:50:49.412Z,99561.13
2023-04-24T23:53:22.964Z,99563.28
2023-04-24T23:55:49.927Z,99561.06
2023-04-24T23:58:18.815Z,99559.09
